sensor_id;sensor_type;location;lat;lon;timestamp;pressure;altitude;pressure_sealevel;temperature;humidity
57644;BME280;43474;46.510;6.686;2023-05-11T00:01:44;96436.28;;;10.02;100.00
57644;BME280;43474;46.510;6.686;2023-05-11T00:04:10;96430.72;;;10.03;100.00
57644;BME280;43474;46.510;6.686;2023-05-11T00:06:36;96426.94;;;9.99;100.00
57644;BME280;43474;46.510;6.686;2023-05-11T00:09:01;96429.38;;;10.01;100.00
57644;BME280;43474;46.510;6.686;2023-05-11T00:11:27;96436.03;;;10.03;100.00
57644;BME280;43474;46.510;6.686;2023-05-11T00:13:52;96417.38;;;9.98;100.00
57644;BME280;43474;46.510;6.686;2023-05-11T00:16:18;96430.72;;;10.03;100.00
57644;BME280;43474;46.510;6.686;2023-05-11T00:18:43;96418.56;;;9.91;100.00
57644;BME280;43474;46.510;6.686;2023-05-11T00:21:09;96425.13;;;10.00;100.00
57644;BME280;43474;46.510;6.686;2023-05-11T00:23:35;96416.03;;;9.96;100.00
57644;BME280;43474;46.510;6.686;2023-05-11T00:26:00;96415.19;;;10.07;100.00
57644;BME280;43474;46.510;6.686;2023-05-11T00:28:26;96413.00;;;10.16;100.00
57644;BME280;43474;46.510;6.686;2023-05-11T00:30:55;96410.81;;;10.13;100.00
57644;BME280;43474;46.510;6.686;2023-05-11T00:33:22;96395.06;;;10.06;100.00
57644;BME280;43474;46.510;6.686;2023-05-11T00:35:47;96407.25;;;10.07;100.00
57644;BME280;43474;46.510;6.686;2023-05-11T00:38:14;96405.31;;;10.02;100.00
57644;BME280;43474;46.510;6.686;2023-05-11T00:40:39;96407.16;;;10.02;100.00
57644;BME280;43474;46.510;6.686;2023-05-11T00:43:05;96407.72;;;10.04;100.00
57644;BME280;43474;46.510;6.686;2023-05-11T00:45:31;96410.94;;;10.06;100.00
57644;BME280;43474;46.510;6.686;2023-05-11T00:47:57;96403.09;;;9.99;100.00
57644;BME280;43474;46.510;6.686;2023-05-11T00:50:23;96402.91;;;10.01;100.00
57644;BME280;43474;46.510;6.686;2023-05-11T00:52:49;96399.91;;;9.97;100.00
57644;BME280;43474;46.510;6.686;2023-05-11T00:55:20;96403.25;;;10.04;100.00
57644;BME280;43474;46.510;6.686;2023-05-11T00:57:47;96401.16;;;10.06;100.00
57644;BME280;43474;46.510;6.686;2023-05-11T01:00:12;96405.50;;;10.13;100.00
57644;BME280;43474;46.510;6.686;2023-05-11T01:02:39;96393.09;;;10.01;100.00
57644;BME280;43474;46.510;6.686;2023-05-11T01:05:05;96404.84;;;10.05;100.00
57644;BME280;43474;46.510;6.686;2023-05-11T01:07:47;96402.75;;;10.07;100.00
57644;BME280;43474;46.510;6.686;2023-05-11T01:10:32;96395.41;;;10.09;100.00
57644;BME280;43474;46.510;6.686;2023-05-11T01:13:26;96391.50;;;10.00;100.00
57644;BME280;43474;46.510;6.686;2023-05-11T01:15:54;96398.84;;;10.10;100.00
57644;BME280;43474;46.510;6.686;2023-05-11T01:18:37;96408.53;;;10.04;100.00
57644;BME280;43474;46.510;6.686;2023-05-11T01:21:05;96405.31;;;10.02;100.00
57644;BME280;43474;46.510;6.686;2023-05-11T01:23:45;96393.81;;;9.97;100.00
57644;BME280;43474;46.510;6.686;2023-05-11T01:31:55;96391.28;;;9.90;100.00
57644;BME280;43474;46.510;6.686;2023-05-11T01:34:24;96394.03;;;9.95;100.00
57644;BME280;43474;46.510;6.686;2023-05-11T01:36:56;96402.69;;;9.91;100.00
57644;BME280;43474;46.510;6.686;2023-05-11T01:39:35;96399.56;;;9.94;100.00
57644;BME280;43474;46.510;6.686;2023-05-11T01:42:10;96405.88;;;10.04;100.00
57644;BME280;43474;46.510;6.686;2023-05-11T01:44:39;96407.03;;;9.97;100.00
57644;BME280;43474;46.510;6.686;2023-05-11T01:47:06;96398.06;;;9.98;100.00
57644;BME280;43474;46.510;6.686;2023-05-11T01:49:36;96401.50;;;9.98;100.00
57644;BME280;43474;46.510;6.686;2023-05-11T01:52:04;96390.16;;;9.86;100.00
57644;BME280;43474;46.510;6.686;2023-05-11T01:54:31;96393.94;;;9.90;100.00
57644;BME280;43474;46.510;6.686;2023-05-11T01:56:59;96405.34;;;9.91;100.00
57644;BME280;43474;46.510;6.686;2023-05-11T01:59:27;96396.78;;;9.89;100.00
57644;BME280;43474;46.510;6.686;2023-05-11T02:01:53;96403.72;;;9.90;100.00
57644;BME280;43474;46.510;6.686;2023-05-11T02:04:20;96403.25;;;10.04;100.00
57644;BME280;43474;46.510;6.686;2023-05-11T02:06:49;96398.84;;;9.98;100.00
57644;BME280;43474;46.510;6.686;2023-05-11T02:09:16;96402.88;;;10.13;100.00
57644;BME280;43474;46.510;6.686;2023-05-11T02:11:44;96396.75;;;10.12;100.00
57644;BME280;43474;46.510;6.686;2023-05-11T02:14:11;96399.41;;;10.12;100.00
57644;BME280;43474;46.510;6.686;2023-05-11T02:16:38;96400.69;;;10.09;100.00
57644;BME280;43474;46.510;6.686;2023-05-11T02:19:07;96386.09;;;9.95;100.00
57644;BME280;43474;46.510;6.686;2023-05-11T02:21:33;96395.84;;;10.06;100.00
57644;BME280;43474;46.510;6.686;2023-05-11T02:24:01;96395.75;;;10.01;100.00
57644;BME280;43474;46.510;6.686;2023-05-11T02:26:28;96395.66;;;9.96;100.00
57644;BME280;43474;46.510;6.686;2023-05-11T02:28:54;96392.88;;;10.03;100.00
57644;BME280;43474;46.510;6.686;2023-05-11T02:31:24;96400.94;;;9.96;100.00
57644;BME280;43474;46.510;6.686;2023-05-11T02:33:52;96397.38;;;9.91;100.00
57644;BME280;43474;46.510;6.686;2023-05-11T02:36:21;96408.19;;;10.01;100.00
57644;BME280;43474;46.510;6.686;2023-05-11T02:38:49;96410.25;;;10.10;100.00
57644;BME280;43474;46.510;6.686;2023-05-11T02:41:20;96397.72;;;10.06;100.00
57644;BME280;43474;46.510;6.686;2023-05-11T02:43:50;96400.69;;;10.09;100.00
57644;BME280;43474;46.510;6.686;2023-05-11T02:46:19;96405.66;;;10.06;100.00
57644;BME280;43474;46.510;6.686;2023-05-11T02:48:51;96401.38;;;10.17;100.00
57644;BME280;43474;46.510;6.686;2023-05-11T02:51:21;96388.81;;;10.12;100.00
57644;BME280;43474;46.510;6.686;2023-05-11T02:53:49;96388.03;;;10.12;100.00
57644;BME280;43474;46.510;6.686;2023-05-11T02:56:17;96393.78;;;10.08;100.00
57644;BME280;43474;46.510;6.686;2023-05-11T02:58:43;96381.56;;;10.07;100.00
57644;BME280;43474;46.510;6.686;2023-05-11T03:01:08;96385.94;;;10.14;100.00
57644;BME280;43474;46.510;6.686;2023-05-11T03:03:34;96386.22;;;10.00;100.00
57644;BME280;43474;46.510;6.686;2023-05-11T03:06:00;96382.63;;;10.06;100.00
57644;BME280;43474;46.510;6.686;2023-05-11T03:08:26;96391.25;;;10.02;100.00
57644;BME280;43474;46.510;6.686;2023-05-11T03:10:52;96385.88;;;9.97;100.00
57644;BME280;43474;46.510;6.686;2023-05-11T03:13:18;96380.72;;;9.90;100.00
57644;BME280;43474;46.510;6.686;2023-05-11T03:15:46;96374.81;;;10.00;100.00
57644;BME280;43474;46.510;6.686;2023-05-11T03:18:12;96368.13;;;9.97;100.00
57644;BME280;43474;46.510;6.686;2023-05-11T03:20:39;96373.88;;;9.94;100.00
57644;BME280;43474;46.510;6.686;2023-05-11T03:23:07;96374.22;;;9.98;100.00
57644;BME280;43474;46.510;6.686;2023-05-11T03:25:33;96363.63;;;9.98;100.00
57644;BME280;43474;46.510;6.686;2023-05-11T03:28:00;96371.34;;;9.99;100.00
57644;BME280;43474;46.510;6.686;2023-05-11T03:30:28;96367.34;;;9.97;100.00
57644;BME280;43474;46.510;6.686;2023-05-11T03:32:55;96375.28;;;9.97;100.00
57644;BME280;43474;46.510;6.686;2023-05-11T03:35:22;96379.91;;;9.90;100.00
57644;BME280;43474;46.510;6.686;2023-05-11T03:37:51;96361.63;;;9.76;100.00
57644;BME280;43474;46.510;6.686;2023-05-11T03:40:18;96367.47;;;9.90;100.00
57644;BME280;43474;46.510;6.686;2023-05-11T03:42:45;96364.03;;;9.90;100.00
57644;BME280;43474;46.510;6.686;2023-05-11T03:45:12;96358.28;;;9.81;100.00
57644;BME280;43474;46.510;6.686;2023-05-11T03:47:39;96361.13;;;9.79;100.00
57644;BME280;43474;46.510;6.686;2023-05-11T03:50:06;96356.88;;;9.78;100.00
57644;BME280;43474;46.510;6.686;2023-05-11T03:52:34;96359.78;;;9.77;100.00
57644;BME280;43474;46.510;6.686;2023-05-11T03:55:01;96364.25;;;9.76;100.00
57644;BME280;43474;46.510;6.686;2023-05-11T03:57:27;96359.06;;;9.81;100.00
57644;BME280;43474;46.510;6.686;2023-05-11T03:59:52;96351.38;;;9.80;100.00
57644;BME280;43474;46.510;6.686;2023-05-11T04:02:18;96357.13;;;9.77;100.00
57644;BME280;43474;46.510;6.686;2023-05-11T04:04:44;96349.88;;;9.72;100.00
57644;BME280;43474;46.510;6.686;2023-05-11T04:07:10;96356.19;;;9.83;100.00
57644;BME280;43474;46.510;6.686;2023-05-11T04:09:35;96360.13;;;9.80;100.00
57644;BME280;43474;46.510;6.686;2023-05-11T04:12:01;96354.59;;;9.82;100.00
57644;BME280;43474;46.510;6.686;2023-05-11T04:14:26;96363.47;;;9.76;100.00
57644;BME280;43474;46.510;6.686;2023-05-11T04:16:52;96348.16;;;9.66;100.00
57644;BME280;43474;46.510;6.686;2023-05-11T04:19:17;96367.16;;;9.75;100.00
57644;BME280;43474;46.510;6.686;2023-05-11T04:21:44;96358.16;;;9.76;100.00
57644;BME280;43474;46.510;6.686;2023-05-11T04:24:10;96357.69;;;9.79;100.00
57644;BME280;43474;46.510;6.686;2023-05-11T04:26:36;96362.28;;;9.83;100.00
57644;BME280;43474;46.510;6.686;2023-05-11T04:29:02;96355.50;;;9.88;100.00
57644;BME280;43474;46.510;6.686;2023-05-11T04:31:28;96360.31;;;9.91;100.00
57644;BME280;43474;46.510;6.686;2023-05-11T04:33:54;96345.25;;;9.91;100.00
57644;BME280;43474;46.510;6.686;2023-05-11T04:36:20;96354.34;;;9.83;100.00
57644;BME280;43474;46.510;6.686;2023-05-11T04:38:46;96359.19;;;9.87;100.00
57644;BME280;43474;46.510;6.686;2023-05-11T04:41:12;96347.44;;;9.82;100.00
57644;BME280;43474;46.510;6.686;2023-05-11T04:43:39;96352.97;;;9.81;100.00
57644;BME280;43474;46.510;6.686;2023-05-11T04:46:05;96354.03;;;9.80;100.00
57644;BME280;43474;46.510;6.686;2023-05-11T04:48:30;96355.38;;;9.82;100.00
57644;BME280;43474;46.510;6.686;2023-05-11T04:50:56;96354.03;;;9.80;100.00
57644;BME280;43474;46.510;6.686;2023-05-11T04:53:22;96366.06;;;9.88;100.00
57644;BME280;43474;46.510;6.686;2023-05-11T04:55:48;96351.59;;;9.78;100.00
57644;BME280;43474;46.510;6.686;2023-05-11T04:58:14;96361.28;;;9.84;100.00
57644;BME280;43474;46.510;6.686;2023-05-11T05:00:39;96358.09;;;9.99;100.00
57644;BME280;43474;46.510;6.686;2023-05-11T05:03:05;96366.63;;;10.01;100.00
57644;BME280;43474;46.510;6.686;2023-05-11T05:05:31;96354.19;;;10.02;100.00
57644;BME280;43474;46.510;6.686;2023-05-11T05:07:56;96366.03;;;9.99;100.00
57644;BME280;43474;46.510;6.686;2023-05-11T05:10:22;96366.59;;;10.13;100.00
57644;BME280;43474;46.510;6.686;2023-05-11T05:12:47;96366.59;;;10.13;100.00
57644;BME280;43474;46.510;6.686;2023-05-11T05:15:13;96354.16;;;10.14;100.00
57644;BME280;43474;46.510;6.686;2023-05-11T05:17:39;96360.59;;;10.18;100.00
57644;BME280;43474;46.510;6.686;2023-05-11T05:20:05;96358.41;;;10.26;100.00
57644;BME280;43474;46.510;6.686;2023-05-11T05:22:32;96359.06;;;10.33;100.00
57644;BME280;43474;46.510;6.686;2023-05-11T05:24:58;96357.81;;;10.36;100.00
57644;BME280;43474;46.510;6.686;2023-05-11T05:27:24;96358.47;;;10.43;100.00
57644;BME280;43474;46.510;6.686;2023-05-11T05:29:50;96357.84;;;10.53;100.00
57644;BME280;43474;46.510;6.686;2023-05-11T05:32:15;96357.94;;;10.58;100.00
57644;BME280;43474;46.510;6.686;2023-05-11T05:34:41;96354.13;;;10.66;100.00
57644;BME280;43474;46.510;6.686;2023-05-11T05:37:07;96361.25;;;10.65;100.00
57644;BME280;43474;46.510;6.686;2023-05-11T05:39:33;96357.19;;;10.74;100.00
57644;BME280;43474;46.510;6.686;2023-05-11T05:41:59;96359.91;;;10.79;100.00
57644;BME280;43474;46.510;6.686;2023-05-11T05:44:25;96361.38;;;10.87;100.00
57644;BME280;43474;46.510;6.686;2023-05-11T05:46:50;96349.16;;;10.86;100.00
57644;BME280;43474;46.510;6.686;2023-05-11T05:49:16;96351.09;;;10.91;100.00
57644;BME280;43474;46.510;6.686;2023-05-11T05:51:41;96347.13;;;10.93;100.00
57644;BME280;43474;46.510;6.686;2023-05-11T05:54:08;96360.09;;;10.90;100.00
57644;BME280;43474;46.510;6.686;2023-05-11T05:56:33;96347.84;;;10.88;100.00
57644;BME280;43474;46.510;6.686;2023-05-11T05:59:00;96350.69;;;10.99;100.00
57644;BME280;43474;46.510;6.686;2023-05-11T06:01:25;96354.00;;;10.89;100.00
57644;BME280;43474;46.510;6.686;2023-05-11T06:03:52;96349.31;;;10.96;100.00
57644;BME280;43474;46.510;6.686;2023-05-11T06:06:17;96349.06;;;10.98;100.00
57644;BME280;43474;46.510;6.686;2023-05-11T06:08:43;96358.63;;;10.99;100.00
57644;BME280;43474;46.510;6.686;2023-05-11T06:11:09;96348.53;;;10.96;100.00
57644;BME280;43474;46.510;6.686;2023-05-11T06:13:35;96346.13;;;10.94;100.00
57644;BME280;43474;46.510;6.686;2023-05-11T06:16:00;96356.31;;;11.02;100.00
57644;BME280;43474;46.510;6.686;2023-05-11T06:18:26;96346.50;;;11.03;100.00
57644;BME280;43474;46.510;6.686;2023-05-11T06:20:52;96345.88;;;11.12;100.00
57644;BME280;43474;46.510;6.686;2023-05-11T06:23:18;96351.66;;;11.26;100.00
57644;BME280;43474;46.510;6.686;2023-05-11T06:25:43;96342.66;;;11.27;100.00
57644;BME280;43474;46.510;6.686;2023-05-11T06:28:09;96342.00;;;11.37;100.00
57644;BME280;43474;46.510;6.686;2023-05-11T06:30:34;96335.34;;;11.34;100.00
57644;BME280;43474;46.510;6.686;2023-05-11T06:33:00;96343.19;;;11.46;100.00
57644;BME280;43474;46.510;6.686;2023-05-11T06:35:26;96337.97;;;11.51;100.00
57644;BME280;43474;46.510;6.686;2023-05-11T06:37:51;96332.97;;;11.55;100.00
57644;BME280;43474;46.510;6.686;2023-05-11T06:40:17;96336.63;;;11.71;100.00
57644;BME280;43474;46.510;6.686;2023-05-11T06:42:43;96327.81;;;11.65;100.00
57644;BME280;43474;46.510;6.686;2023-05-11T06:45:09;96330.91;;;11.79;100.00
57644;BME280;43474;46.510;6.686;2023-05-11T06:47:35;96339.03;;;11.89;100.00
57644;BME280;43474;46.510;6.686;2023-05-11T06:50:00;96331.28;;;11.87;100.00
57644;BME280;43474;46.510;6.686;2023-05-11T06:52:26;96327.09;;;11.92;100.00
57644;BME280;43474;46.510;6.686;2023-05-11T06:54:52;96339.16;;;11.99;100.00
57644;BME280;43474;46.510;6.686;2023-05-11T06:57:17;96337.25;;;11.95;100.00
57644;BME280;43474;46.510;6.686;2023-05-11T06:59:43;96328.28;;;12.01;100.00
57644;BME280;43474;46.510;6.686;2023-05-11T07:02:09;96320.91;;;12.08;100.00
57644;BME280;43474;46.510;6.686;2023-05-11T07:04:34;96330.97;;;12.28;100.00
57644;BME280;43474;46.510;6.686;2023-05-11T07:07:00;96333.13;;;12.31;100.00
57644;BME280;43474;46.510;6.686;2023-05-11T07:09:26;96328.09;;;12.29;100.00
57644;BME280;43474;46.510;6.686;2023-05-11T07:11:51;96331.28;;;12.31;100.00
57644;BME280;43474;46.510;6.686;2023-05-11T07:14:17;96336.44;;;12.43;100.00
57644;BME280;43474;46.510;6.686;2023-05-11T07:16:43;96337.81;;;12.46;100.00
57644;BME280;43474;46.510;6.686;2023-05-11T07:19:08;96337.06;;;12.50;100.00
57644;BME280;43474;46.510;6.686;2023-05-11T07:21:37;96338.03;;;12.39;100.00
57644;BME280;43474;46.510;6.686;2023-05-11T07:24:03;96338.50;;;12.36;100.00
57644;BME280;43474;46.510;6.686;2023-05-11T07:26:28;96333.50;;;12.39;100.00
57644;BME280;43474;46.510;6.686;2023-05-11T07:28:54;96322.50;;;12.31;100.00
57644;BME280;43474;46.510;6.686;2023-05-11T07:31:20;96333.50;;;12.18;100.00
57644;BME280;43474;46.510;6.686;2023-05-11T07:33:46;96328.25;;;12.23;100.00
57644;BME280;43474;46.510;6.686;2023-05-11T07:36:13;96325.00;;;12.15;100.00
57644;BME280;43474;46.510;6.686;2023-05-11T07:38:38;96326.53;;;12.11;100.00
57644;BME280;43474;46.510;6.686;2023-05-11T07:41:05;96329.25;;;12.16;100.00
57644;BME280;43474;46.510;6.686;2023-05-11T07:43:31;96324.13;;;12.10;100.00
57644;BME280;43474;46.510;6.686;2023-05-11T07:45:57;96332.50;;;12.19;100.00
57644;BME280;43474;46.510;6.686;2023-05-11T07:48:22;96337.97;;;12.12;100.00
57644;BME280;43474;46.510;6.686;2023-05-11T07:50:48;96333.44;;;12.12;100.00
57644;BME280;43474;46.510;6.686;2023-05-11T07:53:14;96328.94;;;12.35;100.00
57644;BME280;43474;46.510;6.686;2023-05-11T07:55:40;96322.13;;;12.44;100.00
57644;BME280;43474;46.510;6.686;2023-05-11T07:58:05;96335.41;;;12.71;100.00
57644;BME280;43474;46.510;6.686;2023-05-11T08:00:31;96334.19;;;12.84;100.00
57644;BME280;43474;46.510;6.686;2023-05-11T08:02:57;96330.47;;;12.85;100.00
57644;BME280;43474;46.510;6.686;2023-05-11T08:05:23;96324.91;;;12.86;100.00
57644;BME280;43474;46.510;6.686;2023-05-11T08:07:48;96328.78;;;12.74;100.00
57644;BME280;43474;46.510;6.686;2023-05-11T08:10:14;96328.00;;;12.73;100.00
57644;BME280;43474;46.510;6.686;2023-05-11T08:12:39;96321.00;;;12.67;100.00
57644;BME280;43474;46.510;6.686;2023-05-11T08:15:06;96325.03;;;12.70;100.00
57644;BME280;43474;46.510;6.686;2023-05-11T08:17:31;96324.28;;;12.74;100.00
57644;BME280;43474;46.510;6.686;2023-05-11T08:19:57;96322.16;;;12.76;100.00
57644;BME280;43474;46.510;6.686;2023-05-11T08:22:22;96316.63;;;12.83;100.00
57644;BME280;43474;46.510;6.686;2023-05-11T08:24:49;96328.94;;;12.89;100.00
57644;BME280;43474;46.510;6.686;2023-05-11T08:27:17;96313.81;;;12.94;100.00
57644;BME280;43474;46.510;6.686;2023-05-11T08:29:43;96311.06;;;12.84;100.00
57644;BME280;43474;46.510;6.686;2023-05-11T08:32:08;96318.75;;;12.81;100.00
57644;BME280;43474;46.510;6.686;2023-05-11T08:34:34;96310.84;;;12.59;100.00
57644;BME280;43474;46.510;6.686;2023-05-11T08:37:00;96316.25;;;12.42;100.00
57644;BME280;43474;46.510;6.686;2023-05-11T08:39:28;96312.47;;;12.38;100.00
57644;BME280;43474;46.510;6.686;2023-05-11T08:41:56;96316.03;;;12.22;100.00
57644;BME280;43474;46.510;6.686;2023-05-11T08:44:22;96313.53;;;12.10;100.00
57644;BME280;43474;46.510;6.686;2023-05-11T08:46:51;96311.97;;;12.14;100.00
57644;BME280;43474;46.510;6.686;2023-05-11T08:49:18;96305.09;;;12.18;100.00
57644;BME280;43474;46.510;6.686;2023-05-11T08:51:44;96319.44;;;12.17;100.00
57644;BME280;43474;46.510;6.686;2023-05-11T08:54:11;96306.66;;;12.14;100.00
57644;BME280;43474;46.510;6.686;2023-05-11T08:56:39;96316.34;;;12.25;100.00
57644;BME280;43474;46.510;6.686;2023-05-11T08:59:06;96312.19;;;12.34;100.00
57644;BME280;43474;46.510;6.686;2023-05-11T09:01:34;96306.94;;;12.39;100.00
57644;BME280;43474;46.510;6.686;2023-05-11T09:04:00;96304.25;;;12.66;100.00
57644;BME280;43474;46.510;6.686;2023-05-11T09:06:26;96299.38;;;12.85;100.00
57644;BME280;43474;46.510;6.686;2023-05-11T09:08:53;96305.03;;;13.26;100.00
57644;BME280;43474;46.510;6.686;2023-05-11T09:11:19;96304.13;;;13.53;100.00
57644;BME280;43474;46.510;6.686;2023-05-11T09:13:47;96300.16;;;13.60;100.00
57644;BME280;43474;46.510;6.686;2023-05-11T09:16:13;96295.75;;;13.81;100.00
57644;BME280;43474;46.510;6.686;2023-05-11T09:18:49;96293.97;;;14.02;100.00
57644;BME280;43474;46.510;6.686;2023-05-11T09:21:15;96280.13;;;14.05;100.00
57644;BME280;43474;46.510;6.686;2023-05-11T09:23:42;96293.44;;;14.00;100.00
57644;BME280;43474;46.510;6.686;2023-05-11T09:26:14;96292.66;;;14.05;100.00
57644;BME280;43474;46.510;6.686;2023-05-11T09:28:47;96286.25;;;14.11;100.00
57644;BME280;43474;46.510;6.686;2023-05-11T09:31:33;96276.91;;;13.98;100.00
57644;BME280;43474;46.510;6.686;2023-05-11T09:34:09;96288.38;;;14.04;100.00
57644;BME280;43474;46.510;6.686;2023-05-11T09:36:35;96276.28;;;13.81;100.00
57644;BME280;43474;46.510;6.686;2023-05-11T09:39:02;96274.38;;;13.71;100.00
57644;BME280;43474;46.510;6.686;2023-05-11T09:41:29;96273.28;;;13.62;100.00
57644;BME280;43474;46.510;6.686;2023-05-11T09:44:11;96280.72;;;13.55;100.00
57644;BME280;43474;46.510;6.686;2023-05-11T09:46:37;96260.44;;;13.49;100.00
57644;BME280;43474;46.510;6.686;2023-05-11T09:49:04;96263.06;;;13.38;100.00
57644;BME280;43474;46.510;6.686;2023-05-11T09:51:32;96260.88;;;13.30;100.00
57644;BME280;43474;46.510;6.686;2023-05-11T09:54:00;96261.41;;;13.32;100.00
57644;BME280;43474;46.510;6.686;2023-05-11T09:56:46;96271.03;;;13.38;100.00
57644;BME280;43474;46.510;6.686;2023-05-11T09:59:17;96267.63;;;13.43;100.00
57644;BME280;43474;46.510;6.686;2023-05-11T10:02:23;96247.56;;;13.88;100.00
57644;BME280;43474;46.510;6.686;2023-05-11T10:04:52;96260.22;;;14.38;100.00
57644;BME280;43474;46.510;6.686;2023-05-11T10:07:34;96246.25;;;15.74;100.00
57644;BME280;43474;46.510;6.686;2023-05-11T10:10:04;96257.16;;;15.88;100.00
57644;BME280;43474;46.510;6.686;2023-05-11T10:12:31;96246.03;;;15.45;95.89
57644;BME280;43474;46.510;6.686;2023-05-11T10:15:06;96245.03;;;15.10;100.00
57644;BME280;43474;46.510;6.686;2023-05-11T10:17:33;96252.56;;;14.72;98.18
57644;BME280;43474;46.510;6.686;2023-05-11T10:20:00;96252.72;;;14.30;100.00
57644;BME280;43474;46.510;6.686;2023-05-11T10:22:27;96257.50;;;14.13;100.00
57644;BME280;43474;46.510;6.686;2023-05-11T10:24:55;96255.63;;;14.03;100.00
57644;BME280;43474;46.510;6.686;2023-05-11T10:27:21;96272.06;;;13.90;100.00
57644;BME280;43474;46.510;6.686;2023-05-11T10:29:47;96265.81;;;13.59;100.00
57644;BME280;43474;46.510;6.686;2023-05-11T10:32:15;96270.28;;;13.11;100.00
57644;BME280;43474;46.510;6.686;2023-05-11T10:34:42;96252.69;;;12.67;100.00
57644;BME280;43474;46.510;6.686;2023-05-11T10:37:08;96270.66;;;12.55;100.00
57644;BME280;43474;46.510;6.686;2023-05-11T10:39:38;96264.41;;;12.39;100.00
57644;BME280;43474;46.510;6.686;2023-05-11T10:47:47;96260.53;;;12.52;100.00
57644;BME280;43474;46.510;6.686;2023-05-11T10:53:08;96258.13;;;12.51;100.00
57644;BME280;43474;46.510;6.686;2023-05-11T10:56:15;96247.84;;;12.59;100.00
57644;BME280;43474;46.510;6.686;2023-05-11T10:59:50;96251.88;;;12.67;100.00
57644;BME280;43474;46.510;6.686;2023-05-11T11:01:49;96254.44;;;12.57;100.00
57644;BME280;43474;46.510;6.686;2023-05-11T11:04:22;96234.91;;;12.41;100.00
57644;BME280;43474;46.510;6.686;2023-05-11T11:07:03;96244.28;;;12.49;100.00
57644;BME280;43474;46.510;6.686;2023-05-11T11:09:49;96235.66;;;12.63;100.00
57644;BME280;43474;46.510;6.686;2023-05-11T11:12:15;96231.31;;;12.57;100.00
57644;BME280;43474;46.510;6.686;2023-05-11T11:14:55;96240.72;;;12.65;100.00
57644;BME280;43474;46.510;6.686;2023-05-11T11:17:25;96233.09;;;12.79;100.00
57644;BME280;43474;46.510;6.686;2023-05-11T11:19:52;96234.59;;;13.02;100.00
57644;BME280;43474;46.510;6.686;2023-05-11T11:22:50;96227.44;;;13.07;100.00
57644;BME280;43474;46.510;6.686;2023-05-11T11:25:52;96219.47;;;13.12;100.00
57644;BME280;43474;46.510;6.686;2023-05-11T11:28:18;96224.38;;;13.26;100.00
57644;BME280;43474;46.510;6.686;2023-05-11T11:30:44;96224.09;;;13.22;100.00
57644;BME280;43474;46.510;6.686;2023-05-11T11:38:08;96224.19;;;13.42;100.00
57644;BME280;43474;46.510;6.686;2023-05-11T11:40:35;96179.03;;;13.58;100.00
57644;BME280;43474;46.510;6.686;2023-05-11T11:43:12;96218.50;;;13.86;100.00
57644;BME280;43474;46.510;6.686;2023-05-11T11:45:39;96193.19;;;13.74;100.00
57644;BME280;43474;46.510;6.686;2023-05-11T11:48:12;96196.72;;;14.05;100.00
57644;BME280;43474;46.510;6.686;2023-05-11T11:50:40;96202.66;;;14.42;100.00
57644;BME280;43474;46.510;6.686;2023-05-11T11:53:12;96191.47;;;14.51;100.00
57644;BME280;43474;46.510;6.686;2023-05-11T11:56:04;96192.75;;;15.04;100.00
57644;BME280;43474;46.510;6.686;2023-05-11T12:01:13;96188.47;;;15.88;100.00
57644;BME280;43474;46.510;6.686;2023-05-11T12:03:40;96196.66;;;16.46;100.00
57644;BME280;43474;46.510;6.686;2023-05-11T12:06:07;96203.06;;;16.06;100.00
57644;BME280;43474;46.510;6.686;2023-05-11T12:08:34;96192.53;;;15.75;100.00
57644;BME280;43474;46.510;6.686;2023-05-11T12:11:01;96184.69;;;15.30;100.00
57644;BME280;43474;46.510;6.686;2023-05-11T12:13:27;96188.25;;;14.79;100.00
57644;BME280;43474;46.510;6.686;2023-05-11T12:16:13;96179.47;;;14.63;100.00
57644;BME280;43474;46.510;6.686;2023-05-11T12:18:40;96165.06;;;14.54;100.00
57644;BME280;43474;46.510;6.686;2023-05-11T12:21:05;96172.56;;;14.57;100.00
57644;BME280;43474;46.510;6.686;2023-05-11T12:23:31;96174.91;;;14.33;100.00
57644;BME280;43474;46.510;6.686;2023-05-11T12:26:04;96174.13;;;14.63;100.00
57644;BME280;43474;46.510;6.686;2023-05-11T12:28:31;96171.44;;;14.79;100.00
57644;BME280;43474;46.510;6.686;2023-05-11T12:30:57;96168.19;;;15.07;100.00
57644;BME280;43474;46.510;6.686;2023-05-11T12:33:23;96163.69;;;15.03;100.00
57644;BME280;43474;46.510;6.686;2023-05-11T12:35:52;96163.34;;;15.19;100.00
57644;BME280;43474;46.510;6.686;2023-05-11T12:38:18;96158.47;;;15.42;100.00
57644;BME280;43474;46.510;6.686;2023-05-11T12:40:47;96160.56;;;15.50;100.00
57644;BME280;43474;46.510;6.686;2023-05-11T12:43:20;96136.22;;;15.62;92.99
57644;BME280;43474;46.510;6.686;2023-05-11T12:45:46;96147.47;;;16.42;100.00
57644;BME280;43474;46.510;6.686;2023-05-11T12:48:12;96140.50;;;16.75;97.52
57644;BME280;43474;46.510;6.686;2023-05-11T12:50:43;96141.78;;;16.83;96.29
57644;BME280;43474;46.510;6.686;2023-05-11T12:53:17;96132.00;;;16.34;97.29
57644;BME280;43474;46.510;6.686;2023-05-11T12:55:44;96131.00;;;15.86;100.00
57644;BME280;43474;46.510;6.686;2023-05-11T12:58:14;96124.50;;;15.52;97.98
57644;BME280;43474;46.510;6.686;2023-05-11T13:00:56;96121.31;;;15.50;100.00
57644;BME280;43474;46.510;6.686;2023-05-11T13:03:23;96113.66;;;15.34;100.00
57644;BME280;43474;46.510;6.686;2023-05-11T13:05:50;96107.09;;;15.60;100.00
57644;BME280;43474;46.510;6.686;2023-05-11T13:08:18;96107.66;;;16.36;97.56
57644;BME280;43474;46.510;6.686;2023-05-11T13:10:44;96104.28;;;16.54;100.00
57644;BME280;43474;46.510;6.686;2023-05-11T13:13:24;96108.28;;;16.86;100.00
57644;BME280;43474;46.510;6.686;2023-05-11T13:15:51;96097.94;;;17.03;95.32
57644;BME280;43474;46.510;6.686;2023-05-11T13:18:16;96102.13;;;16.85;94.01
57644;BME280;43474;46.510;6.686;2023-05-11T13:20:43;96107.66;;;16.65;93.06